Terminal Aerodrome Forecast
Issued by NWS Paducah, KY

Home | Current Version | Previous Version | Text Only | Print | Product List | Glossary Off
Versions: 1 2 3 4 5 6 7 8 9 10 11 12 13 14 15 16 17 18 19 20

000
FTUS43 KPAH 270941 AAA
TAFEVV
TAF AMD
KEVV 270941Z 2710/2806 VRB03KT 6SM BR VCSH SCT050 BKN100
      TEMPO 2710/2713 3SM -TSRA BR OVC035CB
     FM271500 24005KT P6SM SCT035
     FM280100 00000KT P6SM FEW050=

USA.gov is the U.S. government's official web portal to all federal, state and local government web resources and services.